sensor_id;sensor_type;location;lat;lon;timestamp;P1;durP1;ratioP1;P2;durP2;ratioP2
43297;SDS011;28892;55.640;37.532;2022-12-16T00:01:22;18.53;;;13.63;;
43297;SDS011;28892;55.640;37.532;2022-12-16T00:03:50;18.80;;;15.33;;
43297;SDS011;28892;55.640;37.532;2022-12-16T00:06:17;13.87;;;8.60;;
43297;SDS011;28892;55.640;37.532;2022-12-16T00:08:44;16.90;;;12.50;;
43297;SDS011;28892;55.640;37.532;2022-12-16T00:11:09;17.70;;;13.03;;
43297;SDS011;28892;55.640;37.532;2022-12-16T00:13:36;15.33;;;9.93;;
43297;SDS011;28892;55.640;37.532;2022-12-16T00:16:09;17.50;;;13.07;;
43297;SDS011;28892;55.640;37.532;2022-12-16T00:18:36;20.80;;;15.33;;
43297;SDS011;28892;55.640;37.532;2022-12-16T00:21:03;16.60;;;9.57;;
43297;SDS011;28892;55.640;37.532;2022-12-16T00:23:29;17.37;;;11.97;;
43297;SDS011;28892;55.640;37.532;2022-12-16T00:25:56;17.40;;;10.27;;
43297;SDS011;28892;55.640;37.532;2022-12-16T00:28:21;18.70;;;14.40;;
43297;SDS011;28892;55.640;37.532;2022-12-16T00:30:51;15.17;;;8.83;;
43297;SDS011;28892;55.640;37.532;2022-12-16T00:33:18;15.83;;;10.27;;
43297;SDS011;28892;55.640;37.532;2022-12-16T00:35:46;13.70;;;8.93;;
43297;SDS011;28892;55.640;37.532;2022-12-16T00:38:12;14.50;;;9.20;;
43297;SDS011;28892;55.640;37.532;2022-12-16T00:40:38;15.03;;;10.00;;
43297;SDS011;28892;55.640;37.532;2022-12-16T00:43:04;14.40;;;9.63;;
43297;SDS011;28892;55.640;37.532;2022-12-16T00:45:30;16.33;;;12.57;;
43297;SDS011;28892;55.640;37.532;2022-12-16T00:47:56;14.83;;;9.60;;
43297;SDS011;28892;55.640;37.532;2022-12-16T00:50:22;13.57;;;8.87;;
43297;SDS011;28892;55.640;37.532;2022-12-16T00:52:48;14.30;;;9.60;;
43297;SDS011;28892;55.640;37.532;2022-12-16T00:55:14;15.43;;;11.57;;
43297;SDS011;28892;55.640;37.532;2022-12-16T00:57:41;13.43;;;9.60;;
43297;SDS011;28892;55.640;37.532;2022-12-16T01:00:07;18.63;;;16.63;;
43297;SDS011;28892;55.640;37.532;2022-12-16T01:02:41;15.53;;;10.43;;
43297;SDS011;28892;55.640;37.532;2022-12-16T01:05:09;11.50;;;8.67;;
43297;SDS011;28892;55.640;37.532;2022-12-16T01:07:36;12.90;;;9.93;;
43297;SDS011;28892;55.640;37.532;2022-12-16T01:10:03;14.50;;;9.50;;
43297;SDS011;28892;55.640;37.532;2022-12-16T01:12:30;13.57;;;9.20;;
43297;SDS011;28892;55.640;37.532;2022-12-16T01:14:56;13.20;;;8.80;;
43297;SDS011;28892;55.640;37.532;2022-12-16T01:17:22;12.30;;;9.47;;
43297;SDS011;28892;55.640;37.532;2022-12-16T01:19:50;13.87;;;9.90;;
43297;SDS011;28892;55.640;37.532;2022-12-16T01:22:16;14.60;;;9.10;;
43297;SDS011;28892;55.640;37.532;2022-12-16T01:24:43;12.67;;;8.50;;
43297;SDS011;28892;55.640;37.532;2022-12-16T01:27:10;14.13;;;8.97;;
43297;SDS011;28892;55.640;37.532;2022-12-16T01:29:36;14.23;;;9.40;;
43297;SDS011;28892;55.640;37.532;2022-12-16T01:32:02;12.63;;;8.60;;
43297;SDS011;28892;55.640;37.532;2022-12-16T01:34:28;15.10;;;9.83;;
43297;SDS011;28892;55.640;37.532;2022-12-16T01:36:53;13.07;;;8.37;;
43297;SDS011;28892;55.640;37.532;2022-12-16T01:39:19;12.97;;;8.73;;
43297;SDS011;28892;55.640;37.532;2022-12-16T01:41:44;14.67;;;10.23;;
43297;SDS011;28892;55.640;37.532;2022-12-16T01:46:50;13.23;;;8.60;;
43297;SDS011;28892;55.640;37.532;2022-12-16T01:49:25;11.83;;;8.00;;
43297;SDS011;28892;55.640;37.532;2022-12-16T01:51:56;11.93;;;8.63;;
43297;SDS011;28892;55.640;37.532;2022-12-16T01:54:30;13.63;;;8.77;;
43297;SDS011;28892;55.640;37.532;2022-12-16T01:57:03;14.03;;;10.97;;
43297;SDS011;28892;55.640;37.532;2022-12-16T01:59:33;14.33;;;10.57;;
43297;SDS011;28892;55.640;37.532;2022-12-16T02:02:02;13.53;;;9.33;;
43297;SDS011;28892;55.640;37.532;2022-12-16T02:04:28;13.57;;;8.80;;
43297;SDS011;28892;55.640;37.532;2022-12-16T02:06:54;10.50;;;7.43;;
43297;SDS011;28892;55.640;37.532;2022-12-16T02:09:21;12.63;;;10.70;;
43297;SDS011;28892;55.640;37.532;2022-12-16T02:17:13;11.63;;;8.23;;
43297;SDS011;28892;55.640;37.532;2022-12-16T02:19:58;11.03;;;7.90;;
43297;SDS011;28892;55.640;37.532;2022-12-16T02:33:45;11.60;;;7.60;;
43297;SDS011;28892;55.640;37.532;2022-12-16T02:39:19;10.43;;;7.30;;
43297;SDS011;28892;55.640;37.532;2022-12-16T02:47:16;11.07;;;7.37;;
43297;SDS011;28892;55.640;37.532;2022-12-16T02:49:46;12.70;;;8.37;;
43297;SDS011;28892;55.640;37.532;2022-12-16T02:52:14;11.63;;;8.02;;
43297;SDS011;28892;55.640;37.532;2022-12-16T02:54:41;14.07;;;8.63;;
43297;SDS011;28892;55.640;37.532;2022-12-16T03:05:21;11.00;;;7.97;;
43297;SDS011;28892;55.640;37.532;2022-12-16T03:07:54;12.97;;;8.30;;
43297;SDS011;28892;55.640;37.532;2022-12-16T03:10:27;12.50;;;8.27;;
43297;SDS011;28892;55.640;37.532;2022-12-16T03:12:57;10.50;;;6.87;;
43297;SDS011;28892;55.640;37.532;2022-12-16T03:15:27;11.67;;;8.00;;
43297;SDS011;28892;55.640;37.532;2022-12-16T03:18:18;11.37;;;7.83;;
43297;SDS011;28892;55.640;37.532;2022-12-16T03:20:52;13.52;;;8.10;;
43297;SDS011;28892;55.640;37.532;2022-12-16T03:23:23;16.73;;;7.93;;
43297;SDS011;28892;55.640;37.532;2022-12-16T03:25:55;12.10;;;8.15;;
43297;SDS011;28892;55.640;37.532;2022-12-16T03:28:30;11.00;;;7.60;;
43297;SDS011;28892;55.640;37.532;2022-12-16T03:31:06;13.37;;;8.07;;
43297;SDS011;28892;55.640;37.532;2022-12-16T03:33:48;13.53;;;8.40;;
43297;SDS011;28892;55.640;37.532;2022-12-16T03:36:36;12.85;;;8.50;;
43297;SDS011;28892;55.640;37.532;2022-12-16T03:39:05;12.37;;;8.67;;
43297;SDS011;28892;55.640;37.532;2022-12-16T03:41:33;12.67;;;7.80;;
43297;SDS011;28892;55.640;37.532;2022-12-16T03:44:00;10.70;;;7.60;;
43297;SDS011;28892;55.640;37.532;2022-12-16T03:46:26;11.23;;;7.50;;
43297;SDS011;28892;55.640;37.532;2022-12-16T03:48:51;12.67;;;8.57;;
43297;SDS011;28892;55.640;37.532;2022-12-16T03:51:18;13.27;;;8.50;;
43297;SDS011;28892;55.640;37.532;2022-12-16T03:53:44;13.20;;;8.27;;
43297;SDS011;28892;55.640;37.532;2022-12-16T03:56:10;12.57;;;8.70;;
43297;SDS011;28892;55.640;37.532;2022-12-16T03:58:37;12.03;;;8.20;;
43297;SDS011;28892;55.640;37.532;2022-12-16T04:01:05;15.53;;;9.00;;
43297;SDS011;28892;55.640;37.532;2022-12-16T04:03:33;15.67;;;8.60;;
43297;SDS011;28892;55.640;37.532;2022-12-16T04:05:59;12.60;;;8.33;;
43297;SDS011;28892;55.640;37.532;2022-12-16T04:08:25;9.83;;;7.90;;
43297;SDS011;28892;55.640;37.532;2022-12-16T04:10:51;12.00;;;9.20;;
43297;SDS011;28892;55.640;37.532;2022-12-16T04:13:36;15.77;;;8.23;;
43297;SDS011;28892;55.640;37.532;2022-12-16T04:16:20;11.90;;;7.97;;
43297;SDS011;28892;55.640;37.532;2022-12-16T04:19:04;11.13;;;7.53;;
43297;SDS011;28892;55.640;37.532;2022-12-16T04:21:48;12.17;;;7.73;;
43297;SDS011;28892;55.640;37.532;2022-12-16T04:24:33;11.77;;;8.57;;
43297;SDS011;28892;55.640;37.532;2022-12-16T04:26:59;13.13;;;7.90;;
43297;SDS011;28892;55.640;37.532;2022-12-16T04:29:44;13.73;;;7.57;;
43297;SDS011;28892;55.640;37.532;2022-12-16T04:32:29;9.20;;;7.60;;
43297;SDS011;28892;55.640;37.532;2022-12-16T04:35:14;11.27;;;7.97;;
43297;SDS011;28892;55.640;37.532;2022-12-16T04:37:57;12.87;;;7.60;;
43297;SDS011;28892;55.640;37.532;2022-12-16T04:40:42;11.47;;;7.83;;
43297;SDS011;28892;55.640;37.532;2022-12-16T04:43:26;10.37;;;7.30;;
43297;SDS011;28892;55.640;37.532;2022-12-16T04:46:10;12.60;;;7.70;;
43297;SDS011;28892;55.640;37.532;2022-12-16T04:48:56;10.10;;;7.30;;
43297;SDS011;28892;55.640;37.532;2022-12-16T04:51:40;11.33;;;7.57;;
43297;SDS011;28892;55.640;37.532;2022-12-16T04:54:24;11.80;;;7.53;;
43297;SDS011;28892;55.640;37.532;2022-12-16T04:57:08;11.80;;;8.00;;
43297;SDS011;28892;55.640;37.532;2022-12-16T04:59:52;10.80;;;7.90;;
43297;SDS011;28892;55.640;37.532;2022-12-16T05:02:37;12.00;;;7.73;;
43297;SDS011;28892;55.640;37.532;2022-12-16T05:05:21;11.40;;;7.73;;
43297;SDS011;28892;55.640;37.532;2022-12-16T05:08:05;12.03;;;8.33;;
43297;SDS011;28892;55.640;37.532;2022-12-16T05:10:49;11.07;;;7.87;;
43297;SDS011;28892;55.640;37.532;2022-12-16T05:13:33;9.27;;;7.00;;
43297;SDS011;28892;55.640;37.532;2022-12-16T05:16:17;11.87;;;7.90;;
43297;SDS011;28892;55.640;37.532;2022-12-16T05:19:02;12.23;;;8.73;;
43297;SDS011;28892;55.640;37.532;2022-12-16T05:21:46;9.83;;;7.83;;
43297;SDS011;28892;55.640;37.532;2022-12-16T05:24:30;10.50;;;7.73;;
43297;SDS011;28892;55.640;37.532;2022-12-16T05:27:15;10.50;;;7.27;;
43297;SDS011;28892;55.640;37.532;2022-12-16T05:29:59;10.17;;;7.43;;
43297;SDS011;28892;55.640;37.532;2022-12-16T05:32:47;12.03;;;8.00;;
43297;SDS011;28892;55.640;37.532;2022-12-16T05:35:31;9.27;;;7.83;;
43297;SDS011;28892;55.640;37.532;2022-12-16T05:38:16;11.13;;;7.57;;
43297;SDS011;28892;55.640;37.532;2022-12-16T05:41:00;11.17;;;7.77;;
43297;SDS011;28892;55.640;37.532;2022-12-16T05:43:44;10.30;;;7.20;;
43297;SDS011;28892;55.640;37.532;2022-12-16T05:46:29;9.07;;;6.80;;
43297;SDS011;28892;55.640;37.532;2022-12-16T05:49:15;9.50;;;7.23;;
43297;SDS011;28892;55.640;37.532;2022-12-16T05:52:03;11.57;;;7.27;;
43297;SDS011;28892;55.640;37.532;2022-12-16T05:54:47;9.90;;;7.20;;
43297;SDS011;28892;55.640;37.532;2022-12-16T05:57:32;9.73;;;7.27;;
43297;SDS011;28892;55.640;37.532;2022-12-16T06:00:16;8.60;;;6.53;;
43297;SDS011;28892;55.640;37.532;2022-12-16T06:03:09;6.60;;;5.37;;
43297;SDS011;28892;55.640;37.532;2022-12-16T06:05:53;8.87;;;7.10;;
43297;SDS011;28892;55.640;37.532;2022-12-16T06:08:37;10.47;;;6.70;;
43297;SDS011;28892;55.640;37.532;2022-12-16T06:11:24;7.97;;;6.13;;
43297;SDS011;28892;55.640;37.532;2022-12-16T06:14:08;8.27;;;6.50;;
43297;SDS011;28892;55.640;37.532;2022-12-16T06:16:52;9.30;;;6.60;;
43297;SDS011;28892;55.640;37.532;2022-12-16T06:19:37;11.13;;;8.10;;
43297;SDS011;28892;55.640;37.532;2022-12-16T06:22:21;8.67;;;6.47;;
43297;SDS011;28892;55.640;37.532;2022-12-16T06:25:05;8.53;;;6.27;;
43297;SDS011;28892;55.640;37.532;2022-12-16T06:27:50;9.27;;;6.73;;
43297;SDS011;28892;55.640;37.532;2022-12-16T06:30:46;8.70;;;6.50;;
43297;SDS011;28892;55.640;37.532;2022-12-16T06:33:33;10.30;;;7.17;;
43297;SDS011;28892;55.640;37.532;2022-12-16T06:36:43;8.43;;;6.13;;
43297;SDS011;28892;55.640;37.532;2022-12-16T06:39:30;8.17;;;6.57;;
43297;SDS011;28892;55.640;37.532;2022-12-16T06:42:14;8.57;;;6.87;;
43297;SDS011;28892;55.640;37.532;2022-12-16T06:44:59;7.47;;;6.13;;
43297;SDS011;28892;55.640;37.532;2022-12-16T06:47:43;8.97;;;6.60;;
43297;SDS011;28892;55.640;37.532;2022-12-16T06:50:28;9.50;;;6.37;;
43297;SDS011;28892;55.640;37.532;2022-12-16T06:53:13;7.53;;;5.73;;
43297;SDS011;28892;55.640;37.532;2022-12-16T06:55:57;10.77;;;6.70;;
43297;SDS011;28892;55.640;37.532;2022-12-16T06:58:42;10.87;;;7.57;;
43297;SDS011;28892;55.640;37.532;2022-12-16T07:01:26;10.83;;;7.57;;
43297;SDS011;28892;55.640;37.532;2022-12-16T07:04:11;9.20;;;7.37;;
43297;SDS011;28892;55.640;37.532;2022-12-16T07:06:55;9.67;;;6.73;;
43297;SDS011;28892;55.640;37.532;2022-12-16T07:09:39;10.60;;;7.40;;
43297;SDS011;28892;55.640;37.532;2022-12-16T07:12:26;9.20;;;6.40;;
43297;SDS011;28892;55.640;37.532;2022-12-16T07:15:10;10.20;;;6.90;;
43297;SDS011;28892;55.640;37.532;2022-12-16T07:17:54;9.57;;;7.03;;
43297;SDS011;28892;55.640;37.532;2022-12-16T07:20:39;8.87;;;6.27;;
43297;SDS011;28892;55.640;37.532;2022-12-16T07:23:23;8.97;;;6.67;;
43297;SDS011;28892;55.640;37.532;2022-12-16T07:26:07;9.00;;;6.60;;
43297;SDS011;28892;55.640;37.532;2022-12-16T07:28:51;10.03;;;7.00;;
43297;SDS011;28892;55.640;37.532;2022-12-16T07:31:36;10.10;;;6.87;;
43297;SDS011;28892;55.640;37.532;2022-12-16T07:34:20;9.80;;;6.93;;
43297;SDS011;28892;55.640;37.532;2022-12-16T07:37:04;9.80;;;6.60;;
43297;SDS011;28892;55.640;37.532;2022-12-16T07:39:48;11.60;;;7.37;;
43297;SDS011;28892;55.640;37.532;2022-12-16T07:42:33;11.27;;;7.23;;
43297;SDS011;28892;55.640;37.532;2022-12-16T07:45:17;12.80;;;7.83;;
43297;SDS011;28892;55.640;37.532;2022-12-16T07:48:02;12.10;;;7.40;;
43297;SDS011;28892;55.640;37.532;2022-12-16T07:50:46;13.27;;;6.90;;
43297;SDS011;28892;55.640;37.532;2022-12-16T07:53:30;10.23;;;6.47;;
43297;SDS011;28892;55.640;37.532;2022-12-16T07:56:14;10.37;;;7.07;;
43297;SDS011;28892;55.640;37.532;2022-12-16T07:58:59;10.63;;;7.33;;
43297;SDS011;28892;55.640;37.532;2022-12-16T08:01:43;9.83;;;7.50;;
43297;SDS011;28892;55.640;37.532;2022-12-16T08:04:27;10.20;;;7.50;;
43297;SDS011;28892;55.640;37.532;2022-12-16T08:07:11;8.87;;;7.10;;
43297;SDS011;28892;55.640;37.532;2022-12-16T08:13:07;11.23;;;7.77;;
43297;SDS011;28892;55.640;37.532;2022-12-16T08:15:51;9.20;;;7.60;;
43297;SDS011;28892;55.640;37.532;2022-12-16T08:18:35;10.77;;;7.80;;
43297;SDS011;28892;55.640;37.532;2022-12-16T08:21:20;12.27;;;7.63;;
43297;SDS011;28892;55.640;37.532;2022-12-16T08:24:04;11.03;;;7.53;;
43297;SDS011;28892;55.640;37.532;2022-12-16T08:26:48;10.13;;;7.47;;
43297;SDS011;28892;55.640;37.532;2022-12-16T08:29:33;9.90;;;7.37;;
43297;SDS011;28892;55.640;37.532;2022-12-16T08:32:17;10.40;;;7.90;;
43297;SDS011;28892;55.640;37.532;2022-12-16T08:35:01;10.80;;;6.70;;
43297;SDS011;28892;55.640;37.532;2022-12-16T08:37:53;9.73;;;7.33;;
43297;SDS011;28892;55.640;37.532;2022-12-16T08:40:58;10.47;;;7.30;;
43297;SDS011;28892;55.640;37.532;2022-12-16T08:43:58;10.77;;;7.50;;
43297;SDS011;28892;55.640;37.532;2022-12-16T08:46:43;12.73;;;8.07;;
43297;SDS011;28892;55.640;37.532;2022-12-16T08:49:27;10.83;;;8.60;;
43297;SDS011;28892;55.640;37.532;2022-12-16T08:52:13;11.50;;;8.57;;
43297;SDS011;28892;55.640;37.532;2022-12-16T08:54:57;11.20;;;8.10;;
43297;SDS011;28892;55.640;37.532;2022-12-16T08:57:41;10.13;;;7.50;;
43297;SDS011;28892;55.640;37.532;2022-12-16T09:00:25;10.53;;;8.20;;
43297;SDS011;28892;55.640;37.532;2022-12-16T09:03:09;10.13;;;7.57;;
43297;SDS011;28892;55.640;37.532;2022-12-16T09:05:58;11.30;;;8.50;;
43297;SDS011;28892;55.640;37.532;2022-12-16T09:08:43;10.10;;;7.37;;
43297;SDS011;28892;55.640;37.532;2022-12-16T09:11:27;10.60;;;8.23;;
43297;SDS011;28892;55.640;37.532;2022-12-16T09:14:11;10.60;;;7.77;;
43297;SDS011;28892;55.640;37.532;2022-12-16T09:16:58;14.33;;;7.13;;
43297;SDS011;28892;55.640;37.532;2022-12-16T09:19:44;10.63;;;7.43;;
43297;SDS011;28892;55.640;37.532;2022-12-16T09:22:31;9.87;;;7.80;;
43297;SDS011;28892;55.640;37.532;2022-12-16T09:33:37;8.67;;;6.30;;
43297;SDS011;28892;55.640;37.532;2022-12-16T09:36:21;9.97;;;7.33;;
43297;SDS011;28892;55.640;37.532;2022-12-16T09:39:05;11.50;;;7.90;;
43297;SDS011;28892;55.640;37.532;2022-12-16T09:42:00;10.60;;;7.80;;
43297;SDS011;28892;55.640;37.532;2022-12-16T09:45:00;10.23;;;7.23;;
43297;SDS011;28892;55.640;37.532;2022-12-16T09:47:56;10.90;;;7.03;;
43297;SDS011;28892;55.640;37.532;2022-12-16T09:50:49;8.77;;;6.60;;
43297;SDS011;28892;55.640;37.532;2022-12-16T09:53:38;10.33;;;7.33;;
43297;SDS011;28892;55.640;37.532;2022-12-16T09:56:27;9.93;;;7.83;;
43297;SDS011;28892;55.640;37.532;2022-12-16T09:59:27;9.47;;;7.03;;
43297;SDS011;28892;55.640;37.532;2022-12-16T10:02:16;11.20;;;8.40;;
43297;SDS011;28892;55.640;37.532;2022-12-16T10:05:01;9.37;;;6.90;;
43297;SDS011;28892;55.640;37.532;2022-12-16T10:11:21;11.23;;;7.93;;
43297;SDS011;28892;55.640;37.532;2022-12-16T10:14:20;9.83;;;7.50;;
43297;SDS011;28892;55.640;37.532;2022-12-16T10:17:13;10.10;;;7.97;;
43297;SDS011;28892;55.640;37.532;2022-12-16T10:23:09;10.13;;;7.40;;
43297;SDS011;28892;55.640;37.532;2022-12-16T10:26:03;9.83;;;7.27;;
43297;SDS011;28892;55.640;37.532;2022-12-16T10:28:57;9.67;;;6.70;;
43297;SDS011;28892;55.640;37.532;2022-12-16T10:32:20;11.63;;;8.07;;
43297;SDS011;28892;55.640;37.532;2022-12-16T10:35:16;14.03;;;9.00;;
43297;SDS011;28892;55.640;37.532;2022-12-16T10:42:16;9.50;;;7.07;;
43297;SDS011;28892;55.640;37.532;2022-12-16T10:45:06;8.77;;;6.50;;
43297;SDS011;28892;55.640;37.532;2022-12-16T10:48:09;9.03;;;6.70;;
43297;SDS011;28892;55.640;37.532;2022-12-16T10:50:54;7.83;;;6.27;;
43297;SDS011;28892;55.640;37.532;2022-12-16T10:53:38;8.40;;;6.40;;
43297;SDS011;28892;55.640;37.532;2022-12-16T10:56:48;8.93;;;6.73;;
43297;SDS011;28892;55.640;37.532;2022-12-16T10:59:39;8.93;;;6.50;;
43297;SDS011;28892;55.640;37.532;2022-12-16T11:02:27;8.93;;;6.50;;
43297;SDS011;28892;55.640;37.532;2022-12-16T11:08:34;7.93;;;6.40;;
43297;SDS011;28892;55.640;37.532;2022-12-16T11:11:20;7.70;;;6.27;;
43297;SDS011;28892;55.640;37.532;2022-12-16T11:14:27;7.70;;;5.93;;
43297;SDS011;28892;55.640;37.532;2022-12-16T11:17:15;9.03;;;6.77;;
43297;SDS011;28892;55.640;37.532;2022-12-16T11:23:16;8.57;;;6.10;;
43297;SDS011;28892;55.640;37.532;2022-12-16T11:26:11;8.57;;;5.70;;
43297;SDS011;28892;55.640;37.532;2022-12-16T11:31:47;8.90;;;6.43;;
43297;SDS011;28892;55.640;37.532;2022-12-16T11:34:37;6.77;;;5.47;;
43297;SDS011;28892;55.640;37.532;2022-12-16T11:37:26;8.87;;;6.17;;
43297;SDS011;28892;55.640;37.532;2022-12-16T11:40:13;8.73;;;5.87;;
43297;SDS011;28892;55.640;37.532;2022-12-16T11:43:02;7.23;;;5.70;;
43297;SDS011;28892;55.640;37.532;2022-12-16T11:45:48;7.70;;;5.80;;
43297;SDS011;28892;55.640;37.532;2022-12-16T11:48:37;9.57;;;6.27;;
43297;SDS011;28892;55.640;37.532;2022-12-16T11:51:27;8.23;;;6.10;;
43297;SDS011;28892;55.640;37.532;2022-12-16T11:54:16;7.67;;;6.27;;
43297;SDS011;28892;55.640;37.532;2022-12-16T11:57:18;8.27;;;6.43;;
43297;SDS011;28892;55.640;37.532;2022-12-16T12:00:05;8.37;;;6.30;;
43297;SDS011;28892;55.640;37.532;2022-12-16T12:03:08;8.17;;;6.20;;
43297;SDS011;28892;55.640;37.532;2022-12-16T12:21:33;7.97;;;5.90;;
43297;SDS011;28892;55.640;37.532;2022-12-16T12:24:40;10.07;;;6.07;;
43297;SDS011;28892;55.640;37.532;2022-12-16T12:27:47;10.60;;;6.43;;
43297;SDS011;28892;55.640;37.532;2022-12-16T12:30:47;6.90;;;4.63;;
43297;SDS011;28892;55.640;37.532;2022-12-16T12:37:03;9.77;;;7.40;;
43297;SDS011;28892;55.640;37.532;2022-12-16T12:40:09;9.97;;;7.03;;
43297;SDS011;28892;55.640;37.532;2022-12-16T12:42:58;8.27;;;6.70;;
43297;SDS011;28892;55.640;37.532;2022-12-16T12:48:58;9.77;;;6.33;;
43297;SDS011;28892;55.640;37.532;2022-12-16T12:58:13;9.40;;;6.73;;
43297;SDS011;28892;55.640;37.532;2022-12-16T13:01:00;11.40;;;7.70;;
43297;SDS011;28892;55.640;37.532;2022-12-16T13:03:49;10.70;;;7.13;;
43297;SDS011;28892;55.640;37.532;2022-12-16T13:20:44;11.10;;;7.93;;
43297;SDS011;28892;55.640;37.532;2022-12-16T13:23:36;8.63;;;7.10;;
43297;SDS011;28892;55.640;37.532;2022-12-16T13:26:27;10.97;;;8.27;;
43297;SDS011;28892;55.640;37.532;2022-12-16T13:29:27;9.87;;;7.70;;
43297;SDS011;28892;55.640;37.532;2022-12-16T13:32:23;13.60;;;8.43;;
43297;SDS011;28892;55.640;37.532;2022-12-16T13:38:03;11.07;;;8.27;;
43297;SDS011;28892;55.640;37.532;2022-12-16T13:41:00;11.10;;;8.20;;
43297;SDS011;28892;55.640;37.532;2022-12-16T13:43:50;11.30;;;8.83;;
43297;SDS011;28892;55.640;37.532;2022-12-16T13:46:45;10.77;;;8.27;;
43297;SDS011;28892;55.640;37.532;2022-12-16T13:55:25;12.40;;;8.80;;
43297;SDS011;28892;55.640;37.532;2022-12-16T14:01:13;10.70;;;8.33;;
43297;SDS011;28892;55.640;37.532;2022-12-16T14:04:07;11.03;;;8.23;;
43297;SDS011;28892;55.640;37.532;2022-12-16T14:06:52;13.13;;;9.10;;
43297;SDS011;28892;55.640;37.532;2022-12-16T14:09:40;13.40;;;9.27;;
43297;SDS011;28892;55.640;37.532;2022-12-16T14:18:30;16.58;;;9.80;;
43297;SDS011;28892;55.640;37.532;2022-12-16T14:21:21;12.40;;;9.27;;
43297;SDS011;28892;55.640;37.532;2022-12-16T14:24:33;11.73;;;9.40;;
43297;SDS011;28892;55.640;37.532;2022-12-16T14:27:18;13.03;;;9.17;;
43297;SDS011;28892;55.640;37.532;2022-12-16T14:33:25;16.23;;;10.03;;
43297;SDS011;28892;55.640;37.532;2022-12-16T14:36:27;12.83;;;10.30;;
43297;SDS011;28892;55.640;37.532;2022-12-16T14:39:12;12.43;;;9.97;;
43297;SDS011;28892;55.640;37.532;2022-12-16T14:45:37;14.83;;;10.03;;
43297;SDS011;28892;55.640;37.532;2022-12-16T14:54:36;13.70;;;9.70;;
43297;SDS011;28892;55.640;37.532;2022-12-16T14:57:28;13.47;;;10.57;;
43297;SDS011;28892;55.640;37.532;2022-12-16T15:03:23;12.67;;;9.30;;
43297;SDS011;28892;55.640;37.532;2022-12-16T15:06:26;14.07;;;9.60;;
43297;SDS011;28892;55.640;37.532;2022-12-16T15:09:19;13.00;;;9.57;;
43297;SDS011;28892;55.640;37.532;2022-12-16T15:12:07;13.87;;;10.00;;
43297;SDS011;28892;55.640;37.532;2022-12-16T15:14:53;15.93;;;9.63;;
43297;SDS011;28892;55.640;37.532;2022-12-16T15:17:43;15.10;;;10.03;;
43297;SDS011;28892;55.640;37.532;2022-12-16T15:20:42;14.17;;;9.80;;
43297;SDS011;28892;55.640;37.532;2022-12-16T15:23:38;13.53;;;9.13;;
43297;SDS011;28892;55.640;37.532;2022-12-16T15:26:32;11.97;;;8.43;;
43297;SDS011;28892;55.640;37.532;2022-12-16T15:32:42;15.80;;;10.25;;
43297;SDS011;28892;55.640;37.532;2022-12-16T15:35:37;12.30;;;8.80;;
43297;SDS011;28892;55.640;37.532;2022-12-16T15:38:55;12.70;;;9.73;;
43297;SDS011;28892;55.640;37.532;2022-12-16T15:42:04;12.73;;;8.67;;
43297;SDS011;28892;55.640;37.532;2022-12-16T15:45:05;11.67;;;8.03;;
43297;SDS011;28892;55.640;37.532;2022-12-16T15:48:23;11.30;;;7.93;;
43297;SDS011;28892;55.640;37.532;2022-12-16T15:54:03;10.88;;;8.18;;
43297;SDS011;28892;55.640;37.532;2022-12-16T15:56:51;11.00;;;8.33;;
43297;SDS011;28892;55.640;37.532;2022-12-16T15:59:35;10.33;;;8.50;;
43297;SDS011;28892;55.640;37.532;2022-12-16T16:02:44;11.57;;;8.23;;
43297;SDS011;28892;55.640;37.532;2022-12-16T16:05:32;10.27;;;7.63;;
43297;SDS011;28892;55.640;37.532;2022-12-16T16:08:19;9.50;;;7.40;;
43297;SDS011;28892;55.640;37.532;2022-12-16T16:11:03;10.93;;;8.27;;
43297;SDS011;28892;55.640;37.532;2022-12-16T16:13:50;11.37;;;8.67;;
43297;SDS011;28892;55.640;37.532;2022-12-16T16:16:34;12.87;;;8.47;;
43297;SDS011;28892;55.640;37.532;2022-12-16T16:19:20;12.20;;;8.53;;
43297;SDS011;28892;55.640;37.532;2022-12-16T16:22:11;11.90;;;8.63;;
43297;SDS011;28892;55.640;37.532;2022-12-16T16:24:57;12.07;;;8.37;;
43297;SDS011;28892;55.640;37.532;2022-12-16T16:27:41;11.60;;;8.70;;
43297;SDS011;28892;55.640;37.532;2022-12-16T16:30:26;13.60;;;9.67;;
43297;SDS011;28892;55.640;37.532;2022-12-16T16:33:30;12.77;;;8.30;;
43297;SDS011;28892;55.640;37.532;2022-12-16T16:36:14;13.17;;;9.20;;
43297;SDS011;28892;55.640;37.532;2022-12-16T16:39:02;11.97;;;8.60;;
43297;SDS011;28892;55.640;37.532;2022-12-16T16:41:49;12.57;;;9.10;;
43297;SDS011;28892;55.640;37.532;2022-12-16T16:44:34;13.63;;;9.23;;
43297;SDS011;28892;55.640;37.532;2022-12-16T16:47:39;12.80;;;9.00;;
43297;SDS011;28892;55.640;37.532;2022-12-16T16:50:22;10.67;;;8.80;;
43297;SDS011;28892;55.640;37.532;2022-12-16T16:53:15;13.30;;;8.77;;
43297;SDS011;28892;55.640;37.532;2022-12-16T16:56:02;11.03;;;8.47;;
43297;SDS011;28892;55.640;37.532;2022-12-16T16:58:46;12.63;;;9.40;;
43297;SDS011;28892;55.640;37.532;2022-12-16T17:01:31;14.20;;;9.07;;
43297;SDS011;28892;55.640;37.532;2022-12-16T17:04:15;13.17;;;9.30;;
43297;SDS011;28892;55.640;37.532;2022-12-16T17:06:59;14.50;;;9.40;;
43297;SDS011;28892;55.640;37.532;2022-12-16T17:09:45;11.47;;;8.23;;
43297;SDS011;28892;55.640;37.532;2022-12-16T17:12:30;11.73;;;8.90;;
43297;SDS011;28892;55.640;37.532;2022-12-16T17:15:18;13.17;;;9.47;;
43297;SDS011;28892;55.640;37.532;2022-12-16T17:18:07;11.18;;;7.68;;
43297;SDS011;28892;55.640;37.532;2022-12-16T17:20:52;13.47;;;9.83;;
43297;SDS011;28892;55.640;37.532;2022-12-16T17:23:37;12.50;;;9.07;;
43297;SDS011;28892;55.640;37.532;2022-12-16T17:26:22;13.80;;;9.10;;
43297;SDS011;28892;55.640;37.532;2022-12-16T17:29:11;13.10;;;8.70;;
43297;SDS011;28892;55.640;37.532;2022-12-16T17:32:00;9.38;;;7.13;;
43297;SDS011;28892;55.640;37.532;2022-12-16T17:34:44;13.40;;;9.43;;
43297;SDS011;28892;55.640;37.532;2022-12-16T17:37:29;11.03;;;8.33;;
43297;SDS011;28892;55.640;37.532;2022-12-16T17:40:13;13.20;;;8.97;;
43297;SDS011;28892;55.640;37.532;2022-12-16T17:42:57;11.20;;;7.60;;
43297;SDS011;28892;55.640;37.532;2022-12-16T17:45:41;13.80;;;9.60;;
43297;SDS011;28892;55.640;37.532;2022-12-16T17:48:26;15.67;;;10.80;;
43297;SDS011;28892;55.640;37.532;2022-12-16T17:51:10;14.30;;;9.20;;
43297;SDS011;28892;55.640;37.532;2022-12-16T17:53:54;12.80;;;8.73;;
43297;SDS011;28892;55.640;37.532;2022-12-16T17:56:38;10.43;;;7.40;;
43297;SDS011;28892;55.640;37.532;2022-12-16T17:59:22;11.70;;;9.17;;
43297;SDS011;28892;55.640;37.532;2022-12-16T18:02:10;16.27;;;11.00;;
43297;SDS011;28892;55.640;37.532;2022-12-16T18:04:56;21.90;;;13.50;;
43297;SDS011;28892;55.640;37.532;2022-12-16T18:07:40;16.17;;;10.13;;
43297;SDS011;28892;55.640;37.532;2022-12-16T18:10:25;14.87;;;10.87;;
43297;SDS011;28892;55.640;37.532;2022-12-16T18:13:09;14.67;;;10.67;;
43297;SDS011;28892;55.640;37.532;2022-12-16T18:15:53;13.57;;;9.13;;
43297;SDS011;28892;55.640;37.532;2022-12-16T18:18:38;14.43;;;9.73;;
43297;SDS011;28892;55.640;37.532;2022-12-16T18:21:22;14.93;;;10.43;;
43297;SDS011;28892;55.640;37.532;2022-12-16T18:24:54;16.17;;;10.43;;
43297;SDS011;28892;55.640;37.532;2022-12-16T18:27:38;16.20;;;10.33;;
43297;SDS011;28892;55.640;37.532;2022-12-16T18:36:42;16.97;;;11.03;;